createdAt,value
2018-07-04T00:00:06.247Z,1011.12
2018-07-04T00:01:06.247Z,1011.14
2018-07-04T00:02:06.249Z,1011.14
2018-07-04T00:03:06.250Z,1011.11
2018-07-04T00:04:06.254Z,1011.12
2018-07-04T00:05:06.253Z,1011.13
2018-07-04T00:06:06.261Z,1011.14
2018-07-04T00:07:06.256Z,1011.15
2018-07-04T00:08:06.259Z,1011.11
2018-07-04T00:09:06.265Z,1011.13
2018-07-04T00:10:06.259Z,1011.15
2018-07-04T00:11:06.264Z,1011.14
2018-07-04T00:12:06.264Z,1011.13
2018-07-04T00:13:06.266Z,1011.14
2018-07-04T00:14:06.267Z,1011.12
2018-07-04T00:15:06.268Z,1011.11
2018-07-04T00:16:06.270Z,1011.11
2018-07-04T00:17:06.269Z,1011.11
2018-07-04T00:18:06.270Z,1011.09
2018-07-04T00:19:06.275Z,1011.14
2018-07-04T00:20:06.275Z,1011.12
2018-07-04T00:21:06.276Z,1011.11
2018-07-04T00:22:06.276Z,1011.17
2018-07-04T00:23:06.278Z,1011.13
2018-07-04T00:24:06.283Z,1011.11
2018-07-04T00:25:06.282Z,1011.12
2018-07-04T00:26:06.282Z,1011.13
2018-07-04T00:27:06.287Z,1011.15
2018-07-04T00:28:06.287Z,1011.13
2018-07-04T00:29:06.292Z,1011.17
2018-07-04T00:30:06.288Z,1011.13
2018-07-04T00:31:06.290Z,1011.12
2018-07-04T00:32:06.295Z,1011.15
2018-07-04T00:33:06.292Z,1011.11
2018-07-04T00:34:06.294Z,1011.15
2018-07-04T00:35:06.299Z,1011.11
2018-07-04T00:36:06.292Z,1011.12
2018-07-04T00:37:06.297Z,1011.13
2018-07-04T00:38:06.308Z,1011.13
2018-07-04T00:39:06.299Z,1011.18
2018-07-04T00:40:06.302Z,1011.17
2018-07-04T00:41:06.301Z,1011.23
2018-07-04T00:42:06.303Z,1011.19
2018-07-04T00:43:06.305Z,1011.22
2018-07-04T00:44:06.305Z,1011.19
2018-07-04T00:45:06.305Z,1011.21
2018-07-04T00:46:06.307Z,1011.22
2018-07-04T00:47:06.311Z,1011.24
2018-07-04T00:48:06.316Z,1011.21
2018-07-04T00:49:06.316Z,1011.23
2018-07-04T00:50:06.313Z,1011.21
2018-07-04T00:51:06.312Z,1011.20
2018-07-04T00:52:06.316Z,1011.27
2018-07-04T00:53:06.316Z,1011.28
2018-07-04T00:54:06.312Z,1011.24
2018-07-04T00:55:06.315Z,1011.25
2018-07-04T00:56:06.318Z,1011.24
2018-07-04T00:57:06.320Z,1011.21
2018-07-04T00:58:06.321Z,1011.25
2018-07-04T00:59:06.321Z,1011.22
2018-07-04T01:00:06.326Z,1011.18
2018-07-04T01:01:06.326Z,1011.14
2018-07-04T01:02:06.325Z,1011.14
2018-07-04T01:03:06.325Z,1011.14
2018-07-04T01:04:06.327Z,1011.15
2018-07-04T01:05:06.330Z,1011.11
2018-07-04T01:06:06.330Z,1011.11
2018-07-04T01:07:06.331Z,1011.10
2018-07-04T01:08:06.333Z,1011.11
2018-07-04T01:09:06.331Z,1011.07
2018-07-04T01:10:06.333Z,1011.08
2018-07-04T01:11:06.332Z,1011.09
2018-07-04T01:12:06.332Z,1011.08
2018-07-04T01:13:06.333Z,1011.03
2018-07-04T01:14:06.337Z,1011.06
2018-07-04T01:15:06.338Z,1011.07
2018-07-04T01:16:06.339Z,1011.06
2018-07-04T01:17:06.341Z,1011.05
2018-07-04T01:18:06.346Z,1011.05
2018-07-04T01:19:06.341Z,1011.03
2018-07-04T01:20:06.344Z,1011.04
2018-07-04T01:21:06.340Z,1011.03
2018-07-04T01:22:06.348Z,1011.05
2018-07-04T01:23:06.348Z,1011.02
2018-07-04T01:24:06.346Z,1010.98
2018-07-04T01:25:06.346Z,1010.99
2018-07-04T01:26:06.345Z,1011.00
2018-07-04T01:27:06.349Z,1011.02
2018-07-04T01:28:06.350Z,1011.00
2018-07-04T01:29:06.349Z,1011.02
2018-07-04T01:30:06.348Z,1011.03
2018-07-04T01:31:06.349Z,1011.02
2018-07-04T01:32:06.359Z,1011.00
2018-07-04T01:33:06.353Z,1011.05
2018-07-04T01:34:06.360Z,1011.01
2018-07-04T01:35:06.352Z,1011.04
2018-07-04T01:36:06.357Z,1011.02
2018-07-04T01:37:06.353Z,1011.01
2018-07-04T01:38:06.355Z,1011.02
2018-07-04T01:39:06.353Z,1010.99
2018-07-04T01:40:06.363Z,1010.97
2018-07-04T01:41:06.359Z,1010.98
2018-07-04T01:42:06.358Z,1010.95
2018-07-04T01:43:06.357Z,1010.95
2018-07-04T01:44:06.356Z,1010.95
2018-07-04T01:45:06.364Z,1010.96
2018-07-04T01:46:06.356Z,1010.93
2018-07-04T01:47:06.357Z,1010.93
2018-07-04T01:48:06.360Z,1010.94
2018-07-04T01:49:06.363Z,1010.93
2018-07-04T01:50:06.362Z,1010.91
2018-07-04T01:51:06.363Z,1010.91
2018-07-04T01:52:06.363Z,1010.92
2018-07-04T01:53:06.364Z,1010.89
2018-07-04T01:54:06.365Z,1010.91
2018-07-04T01:55:06.365Z,1010.84
2018-07-04T01:56:06.369Z,1010.86
2018-07-04T01:57:06.366Z,1010.89
2018-07-04T01:58:06.366Z,1010.86
2018-07-04T01:59:06.367Z,1010.87
2018-07-04T02:00:06.366Z,1010.88
2018-07-04T02:01:06.368Z,1010.86
2018-07-04T02:02:06.370Z,1010.87
2018-07-04T02:03:06.366Z,1010.84
2018-07-04T02:04:06.367Z,1010.85
2018-07-04T02:05:06.372Z,1010.84
2018-07-04T02:06:06.370Z,1010.83
2018-07-04T02:07:06.372Z,1010.87
2018-07-04T02:08:06.372Z,1010.84
2018-07-04T02:09:06.373Z,1010.84
2018-07-04T02:10:06.373Z,1010.84
2018-07-04T02:11:06.372Z,1010.81
2018-07-04T02:12:06.375Z,1010.80
2018-07-04T02:13:06.381Z,1010.78
2018-07-04T02:14:06.373Z,1010.79
2018-07-04T02:15:06.377Z,1010.83
2018-07-04T02:16:06.376Z,1010.80
2018-07-04T02:17:06.375Z,1010.80
2018-07-04T02:18:06.375Z,1010.78
2018-07-04T02:19:06.369Z,1010.81
2018-07-04T02:20:06.376Z,1010.78
2018-07-04T02:21:06.375Z,1010.79
2018-07-04T02:22:06.376Z,1010.75
2018-07-04T02:23:06.377Z,1010.79
2018-07-04T02:24:06.378Z,1010.77
2018-07-04T02:25:06.379Z,1010.82
2018-07-04T02:26:06.378Z,1010.81
2018-07-04T02:27:06.378Z,1010.79
2018-07-04T02:28:06.378Z,1010.78
2018-07-04T02:29:06.385Z,1010.81
2018-07-04T02:30:06.377Z,1010.82
2018-07-04T02:31:06.377Z,1010.83
2018-07-04T02:32:06.380Z,1010.84
2018-07-04T02:33:06.378Z,1010.83
2018-07-04T02:34:06.383Z,1010.90
2018-07-04T02:35:06.382Z,1010.86
2018-07-04T02:36:06.378Z,1010.87
2018-07-04T02:37:06.387Z,1010.89
2018-07-04T02:38:06.378Z,1010.91
2018-07-04T02:39:06.379Z,1010.90
2018-07-04T02:40:06.379Z,1010.91
2018-07-04T02:41:06.376Z,1010.94
2018-07-04T02:42:06.378Z,1010.92
2018-07-04T02:43:06.379Z,1010.95
2018-07-04T02:44:06.380Z,1010.95
2018-07-04T02:45:06.498Z,1010.94
2018-07-04T02:46:06.382Z,1010.93
2018-07-04T02:47:06.377Z,1010.90
2018-07-04T02:48:06.378Z,1010.90
2018-07-04T02:49:06.377Z,1010.87
2018-07-04T02:50:06.372Z,1010.88
2018-07-04T02:51:06.380Z,1010.88
2018-07-04T02:52:06.385Z,1010.86
2018-07-04T02:53:06.382Z,1010.84
2018-07-04T02:54:06.384Z,1010.83
2018-07-04T02:55:06.379Z,1010.83
2018-07-04T02:56:06.378Z,1010.83
2018-07-04T02:57:06.376Z,1010.85
2018-07-04T02:58:06.380Z,1010.86
2018-07-04T02:59:06.382Z,1010.83
2018-07-04T03:00:06.386Z,1010.82
2018-07-04T03:01:06.378Z,1010.81
2018-07-04T03:02:06.374Z,1010.83
2018-07-04T03:03:06.375Z,1010.83
2018-07-04T03:04:06.376Z,1010.81
2018-07-04T03:05:06.372Z,1010.81
2018-07-04T03:06:06.374Z,1010.80
2018-07-04T03:07:06.376Z,1010.82
2018-07-04T03:08:06.376Z,1010.85
2018-07-04T03:09:06.373Z,1010.88
2018-07-04T03:10:06.380Z,1010.88
2018-07-04T03:11:06.377Z,1010.84
2018-07-04T03:12:06.375Z,1010.89
2018-07-04T03:13:06.373Z,1010.89
2018-07-04T03:14:06.389Z,1010.89
2018-07-04T03:15:06.377Z,1010.90
2018-07-04T03:16:06.378Z,1010.87
2018-07-04T03:17:06.371Z,1010.89
2018-07-04T03:18:06.377Z,1010.92
2018-07-04T03:19:06.376Z,1010.93
2018-07-04T03:20:06.368Z,1010.91
2018-07-04T03:21:06.372Z,1010.93
2018-07-04T03:22:06.375Z,1010.92
2018-07-04T03:23:06.375Z,1010.91
2018-07-04T03:24:06.373Z,1010.89
2018-07-04T03:25:06.375Z,1010.91
2018-07-04T03:26:06.375Z,1010.89
2018-07-04T03:27:06.376Z,1010.89
2018-07-04T03:28:06.372Z,1010.85
2018-07-04T03:29:06.379Z,1010.86
2018-07-04T03:30:06.375Z,1010.88
2018-07-04T03:31:06.373Z,1010.89
2018-07-04T03:32:06.372Z,1010.89
2018-07-04T03:33:06.403Z,1010.95
2018-07-04T03:34:06.368Z,1010.91
2018-07-04T03:35:06.368Z,1010.93
2018-07-04T03:36:06.372Z,1010.90
2018-07-04T03:37:06.371Z,1010.94
2018-07-04T03:38:06.376Z,1010.94
2018-07-04T03:39:06.371Z,1010.93
2018-07-04T03:40:06.372Z,1010.92
2018-07-04T03:41:06.376Z,1010.93
2018-07-04T03:42:06.372Z,1010.93
2018-07-04T03:43:06.373Z,1010.92
2018-07-04T03:44:06.378Z,1010.97
2018-07-04T03:45:06.378Z,1010.89
2018-07-04T03:46:06.372Z,1010.89
2018-07-04T03:47:06.372Z,1010.92
2018-07-04T03:48:06.373Z,1010.90
2018-07-04T03:49:06.375Z,1010.85
2018-07-04T03:50:06.375Z,1010.85
2018-07-04T03:51:06.374Z,1010.87
2018-07-04T03:52:06.390Z,1010.86
2018-07-04T03:53:06.376Z,1010.82
2018-07-04T03:54:06.376Z,1010.83
2018-07-04T03:55:06.380Z,1010.79
2018-07-04T03:56:06.386Z,1010.85
2018-07-04T03:57:06.379Z,1010.83
2018-07-04T03:58:06.424Z,1010.85
2018-07-04T03:59:06.380Z,1010.86
2018-07-04T04:00:06.382Z,1010.85
2018-07-04T04:01:06.389Z,1010.83
2018-07-04T04:02:06.385Z,1010.80
2018-07-04T04:03:06.383Z,1010.82
2018-07-04T04:04:06.384Z,1010.82
2018-07-04T04:05:06.389Z,1010.82
2018-07-04T04:06:06.387Z,1010.85
2018-07-04T04:07:06.389Z,1010.79
2018-07-04T04:08:06.385Z,1010.81
2018-07-04T04:09:06.387Z,1010.82
2018-07-04T04:10:06.396Z,1010.81
2018-07-04T04:11:06.400Z,1010.84
2018-07-04T04:12:06.396Z,1010.85
2018-07-04T04:13:06.395Z,1010.82
2018-07-04T04:14:06.401Z,1010.88
2018-07-04T04:15:06.399Z,1010.88
2018-07-04T04:16:06.411Z,1010.90
2018-07-04T04:17:06.402Z,1010.92
2018-07-04T04:18:06.405Z,1010.89
2018-07-04T04:19:06.409Z,1010.88
2018-07-04T04:20:06.413Z,1010.91
2018-07-04T04:21:06.409Z,1010.96
2018-07-04T04:22:06.412Z,1010.94
2018-07-04T04:23:06.414Z,1010.92
2018-07-04T04:24:06.416Z,1010.96
2018-07-04T04:25:06.417Z,1010.94
2018-07-04T04:26:06.420Z,1010.96
2018-07-04T04:27:06.454Z,1010.95
2018-07-04T04:28:06.428Z,1011.00
2018-07-04T04:29:06.428Z,1010.97
2018-07-04T04:30:06.429Z,1011.01
2018-07-04T04:31:06.437Z,1011.00
2018-07-04T04:32:06.433Z,1010.98
2018-07-04T04:33:06.437Z,1010.94
2018-07-04T04:34:06.440Z,1010.99
2018-07-04T04:35:06.446Z,1010.98
2018-07-04T04:36:06.446Z,1010.97
2018-07-04T04:37:06.447Z,1010.98
2018-07-04T04:38:06.451Z,1010.98
2018-07-04T04:39:06.455Z,1010.99
2018-07-04T04:40:06.457Z,1010.98
2018-07-04T04:41:06.459Z,1010.96
2018-07-04T04:42:06.465Z,1011.03
2018-07-04T04:43:06.466Z,1011.01
2018-07-04T04:44:06.472Z,1010.99
2018-07-04T04:45:06.471Z,1010.98
2018-07-04T04:46:06.476Z,1011.00
2018-07-04T04:47:06.479Z,1011.02
2018-07-04T04:48:06.482Z,1010.96
2018-07-04T04:49:06.485Z,1011.02
2018-07-04T04:50:06.488Z,1010.99
2018-07-04T04:51:06.489Z,1011.02
2018-07-04T04:52:06.495Z,1011.02
2018-07-04T04:53:06.498Z,1011.06
2018-07-04T04:54:06.502Z,1011.06
2018-07-04T04:55:06.507Z,1011.11
2018-07-04T04:56:06.511Z,1011.09
2018-07-04T04:57:06.513Z,1011.09
2018-07-04T04:58:06.516Z,1011.07
2018-07-04T04:59:06.521Z,1011.06
2018-07-04T05:00:06.526Z,1011.07
2018-07-04T05:01:06.528Z,1011.09
2018-07-04T05:02:06.536Z,1011.07
2018-07-04T05:03:06.542Z,1011.07
2018-07-04T05:04:06.547Z,1011.06
2018-07-04T05:05:06.549Z,1011.05
2018-07-04T05:06:06.552Z,1011.07
2018-07-04T05:07:06.557Z,1011.06
2018-07-04T05:08:06.562Z,1011.08
2018-07-04T05:09:06.569Z,1011.08
2018-07-04T05:10:06.569Z,1011.09
2018-07-04T05:11:06.575Z,1011.07
2018-07-04T05:12:06.580Z,1011.10
2018-07-04T05:13:06.581Z,1011.10
2018-07-04T05:14:06.588Z,1011.14
2018-07-04T05:15:06.595Z,1011.13
2018-07-04T05:16:06.601Z,1011.14
2018-07-04T05:17:06.604Z,1011.16
2018-07-04T05:18:06.610Z,1011.14
2018-07-04T05:19:06.619Z,1011.11
2018-07-04T05:20:06.620Z,1011.13
2018-07-04T05:21:06.625Z,1011.10
2018-07-04T05:22:06.628Z,1011.16
2018-07-04T05:23:06.631Z,1011.12
2018-07-04T05:24:06.638Z,1011.19
2018-07-04T05:25:06.644Z,1011.18
2018-07-04T05:26:06.659Z,1011.16
2018-07-04T05:27:06.659Z,1011.16
2018-07-04T05:28:06.666Z,1011.18
2018-07-04T05:29:06.662Z,1011.16
2018-07-04T05:30:06.668Z,1011.16
2018-07-04T05:31:06.675Z,1011.19
2018-07-04T05:32:06.681Z,1011.16
2018-07-04T05:33:06.685Z,1011.17
2018-07-04T05:34:06.688Z,1011.13
2018-07-04T05:35:06.712Z,1011.18
2018-07-04T05:36:06.701Z,1011.14
2018-07-04T05:37:06.705Z,1011.21
2018-07-04T05:38:06.712Z,1011.18
2018-07-04T05:39:06.717Z,1011.21
2018-07-04T05:40:06.723Z,1011.20
2018-07-04T05:41:06.729Z,1011.21
2018-07-04T05:42:06.736Z,1011.20
2018-07-04T05:43:06.743Z,1011.20
2018-07-04T05:44:06.747Z,1011.18
2018-07-04T05:45:06.752Z,1011.17
2018-07-04T05:46:06.759Z,1011.17
2018-07-04T05:47:06.765Z,1011.16
2018-07-04T05:48:06.780Z,1011.18
2018-07-04T05:49:06.777Z,1011.21
2018-07-04T05:50:06.784Z,1011.21
2018-07-04T05:51:06.830Z,1011.20
2018-07-04T05:52:06.796Z,1011.21
2018-07-04T05:53:06.802Z,1011.24
2018-07-04T05:54:06.807Z,1011.27
2018-07-04T05:55:06.816Z,1011.24
2018-07-04T05:56:06.872Z,1011.23
2018-07-04T05:57:06.827Z,1011.25
2018-07-04T05:58:07.009Z,1011.27
2018-07-04T05:59:06.840Z,1011.24
2018-07-04T06:00:06.846Z,1011.24
2018-07-04T06:01:06.852Z,1011.26
2018-07-04T06:02:06.858Z,1011.26
2018-07-04T06:03:06.865Z,1011.24
2018-07-04T06:04:06.872Z,1011.23
2018-07-04T06:05:06.878Z,1011.21
2018-07-04T06:06:06.882Z,1011.24
2018-07-04T06:07:06.889Z,1011.27
2018-07-04T06:08:06.896Z,1011.22
2018-07-04T06:09:06.926Z,1011.21
2018-07-04T06:10:06.908Z,1011.18
2018-07-04T06:11:06.914Z,1011.20
2018-07-04T06:12:06.921Z,1011.18
2018-07-04T06:13:06.927Z,1011.19
2018-07-04T06:14:06.935Z,1011.20
2018-07-04T06:15:06.957Z,1011.22
2018-07-04T06:16:06.948Z,1011.20
2018-07-04T06:17:06.954Z,1011.19
2018-07-04T06:18:06.981Z,1011.20
2018-07-04T06:19:06.970Z,1011.17
2018-07-04T06:20:06.976Z,1011.15
2018-07-04T06:21:06.986Z,1011.20
2018-07-04T06:22:06.989Z,1011.20
2018-07-04T06:23:06.996Z,1011.24
2018-07-04T06:24:07.004Z,1011.24
2018-07-04T06:25:07.012Z,1011.23
2018-07-04T06:26:07.019Z,1011.26
2018-07-04T06:27:07.027Z,1011.25
2018-07-04T06:28:07.035Z,1011.27
2018-07-04T06:29:07.044Z,1011.26
2018-07-04T06:30:07.051Z,1011.26
2018-07-04T06:31:07.056Z,1011.29
2018-07-04T06:32:07.066Z,1011.30
2018-07-04T06:33:07.069Z,1011.26
2018-07-04T06:34:07.083Z,1011.26
2018-07-04T06:35:07.088Z,1011.27
2018-07-04T06:36:07.098Z,1011.25
2018-07-04T06:37:07.104Z,1011.27
2018-07-04T06:38:07.112Z,1011.22
2018-07-04T06:39:07.170Z,1011.20
2018-07-04T06:40:07.130Z,1011.24
2018-07-04T06:41:07.136Z,1011.27
2018-07-04T06:42:07.144Z,1011.30
2018-07-04T06:43:07.154Z,1011.24
2018-07-04T06:44:07.160Z,1011.24
2018-07-04T06:45:07.169Z,1011.27
2018-07-04T06:46:07.182Z,1011.24
2018-07-04T06:47:07.189Z,1011.22
2018-07-04T06:48:07.197Z,1011.23
2018-07-04T06:49:07.255Z,1011.19
2018-07-04T06:50:07.217Z,1011.20
2018-07-04T06:51:07.223Z,1011.20
2018-07-04T06:52:07.233Z,1011.23
2018-07-04T06:53:07.240Z,1011.18
2018-07-04T06:54:07.267Z,1011.19
2018-07-04T06:55:07.299Z,1011.23
2018-07-04T06:56:07.272Z,1011.24
2018-07-04T06:57:07.277Z,1011.20
2018-07-04T06:58:07.287Z,1011.24
2018-07-04T06:59:07.295Z,1011.27
2018-07-04T07:00:07.305Z,1011.28
2018-07-04T07:01:07.314Z,1011.26
2018-07-04T07:02:07.325Z,1011.29
2018-07-04T07:03:07.334Z,1011.31
2018-07-04T07:04:07.344Z,1011.28
2018-07-04T07:05:07.353Z,1011.32
2018-07-04T07:06:07.360Z,1011.28
2018-07-04T07:07:07.376Z,1011.29
2018-07-04T07:08:07.417Z,1011.25
2018-07-04T07:09:07.392Z,1011.28
2018-07-04T07:10:07.402Z,1011.29
2018-07-04T07:11:07.411Z,1011.27
2018-07-04T07:12:07.424Z,1011.26
2018-07-04T07:13:07.432Z,1011.27
2018-07-04T07:14:07.442Z,1011.27
2018-07-04T07:15:07.454Z,1011.29
2018-07-04T07:16:07.464Z,1011.28
2018-07-04T07:17:07.473Z,1011.29
2018-07-04T07:18:07.485Z,1011.26
2018-07-04T07:19:07.493Z,1011.25
2018-07-04T07:20:07.503Z,1011.24
2018-07-04T07:21:07.549Z,1011.23
2018-07-04T07:22:07.525Z,1011.25
2018-07-04T07:23:07.532Z,1011.25
2018-07-04T07:24:07.548Z,1011.24
2018-07-04T07:25:07.558Z,1011.21
2018-07-04T07:26:07.561Z,1011.24
2018-07-04T07:27:07.572Z,1011.26
2018-07-04T07:28:07.582Z,1011.27
2018-07-04T07:29:07.591Z,1011.25
2018-07-04T07:30:07.602Z,1011.27
2018-07-04T07:31:07.613Z,1011.28
2018-07-04T07:32:07.663Z,1011.29
2018-07-04T07:33:07.631Z,1011.26
2018-07-04T07:34:07.671Z,1011.27
2018-07-04T07:35:07.652Z,1011.23
2018-07-04T07:36:07.662Z,1011.24
2018-07-04T07:37:07.672Z,1011.25
2018-07-04T07:38:07.684Z,1011.20
2018-07-04T07:39:07.691Z,1011.19
2018-07-04T07:40:07.701Z,1011.20
2018-07-04T07:41:07.710Z,1011.19
2018-07-04T07:42:07.719Z,1011.20
2018-07-04T07:43:07.729Z,1011.20
2018-07-04T07:44:07.739Z,1011.16
2018-07-04T07:45:07.754Z,1011.19
2018-07-04T07:46:07.760Z,1011.18
2018-07-04T07:47:07.774Z,1011.19
2018-07-04T07:48:07.785Z,1011.15
2018-07-04T07:49:07.793Z,1011.14
2018-07-04T07:50:07.806Z,1011.10
2018-07-04T07:51:07.816Z,1011.13
2018-07-04T07:52:07.828Z,1011.15
2018-07-04T07:53:07.837Z,1011.10
2018-07-04T07:54:07.906Z,1011.10
2018-07-04T07:55:07.862Z,1011.07
2018-07-04T07:56:07.870Z,1011.06
2018-07-04T07:57:07.882Z,1011.06
2018-07-04T07:58:07.893Z,1011.05
2018-07-04T07:59:07.900Z,1011.07
2018-07-04T08:00:07.916Z,1011.06
2018-07-04T08:01:07.932Z,1011.07
2018-07-04T08:02:07.943Z,1011.01
2018-07-04T08:03:07.950Z,1011.08
2018-07-04T08:04:07.962Z,1011.03
2018-07-04T08:05:07.974Z,1011.03
2018-07-04T08:06:07.984Z,1011.01
2018-07-04T08:07:07.994Z,1011.00
2018-07-04T08:08:08.009Z,1011.02
2018-07-04T08:09:08.020Z,1011.01
2018-07-04T08:10:08.039Z,1011.00
2018-07-04T08:11:08.048Z,1011.04
2018-07-04T08:12:08.057Z,1010.99
2018-07-04T08:13:08.069Z,1011.02
2018-07-04T08:14:08.081Z,1011.00
2018-07-04T08:15:08.095Z,1011.00
2018-07-04T08:16:08.103Z,1011.01
2018-07-04T08:17:08.116Z,1010.95
2018-07-04T08:18:08.129Z,1010.98
2018-07-04T08:19:08.147Z,1010.97
2018-07-04T08:20:08.153Z,1010.97
2018-07-04T08:21:08.173Z,1010.96
2018-07-04T08:22:08.179Z,1010.94
2018-07-04T08:23:08.195Z,1010.97
2018-07-04T08:24:08.203Z,1010.97
2018-07-04T08:25:08.215Z,1010.99
2018-07-04T08:26:08.226Z,1010.95
2018-07-04T08:27:08.248Z,1010.96
2018-07-04T08:28:08.254Z,1010.94
2018-07-04T08:29:08.268Z,1010.98
2018-07-04T08:30:08.280Z,1010.94
2018-07-04T08:31:08.309Z,1010.90
2018-07-04T08:32:08.316Z,1010.94
2018-07-04T08:33:08.320Z,1010.97
2018-07-04T08:34:08.340Z,1010.96
2018-07-04T08:35:08.346Z,1010.97
2018-07-04T08:36:08.362Z,1010.98
2018-07-04T08:37:08.376Z,1010.99
2018-07-04T08:38:08.391Z,1010.99
2018-07-04T08:39:08.435Z,1010.96
2018-07-04T08:40:08.416Z,1011.02
2018-07-04T08:41:08.423Z,1011.08
2018-07-04T08:42:08.444Z,1011.05
2018-07-04T08:43:08.458Z,1011.06
2018-07-04T08:44:08.470Z,1011.07
2018-07-04T08:45:08.483Z,1011.04
2018-07-04T08:46:08.495Z,1011.01
2018-07-04T08:47:08.517Z,1011.07
2018-07-04T08:48:08.529Z,1010.98
2018-07-04T08:49:08.538Z,1011.00
2018-07-04T08:50:08.554Z,1010.99
2018-07-04T08:51:08.569Z,1011.01
2018-07-04T08:52:08.582Z,1010.98
2018-07-04T08:53:08.598Z,1011.02
2018-07-04T08:54:08.612Z,1011.04
2018-07-04T08:55:08.625Z,1011.01
2018-07-04T08:56:08.644Z,1010.98
2018-07-04T08:57:08.657Z,1010.99
2018-07-04T08:58:08.672Z,1010.99
2018-07-04T08:59:08.690Z,1010.95
2018-07-04T09:00:08.707Z,1011.00
2018-07-04T09:01:08.717Z,1011.02
2018-07-04T09:02:08.733Z,1010.99
2018-07-04T09:03:08.748Z,1010.97
2018-07-04T09:04:08.763Z,1010.92
2018-07-04T09:05:08.776Z,1010.85
2018-07-04T09:06:08.791Z,1010.77
2018-07-04T09:07:08.804Z,1010.82
2018-07-04T09:08:08.820Z,1010.75
2018-07-04T09:09:08.833Z,1010.70
2018-07-04T09:10:08.846Z,1010.72
2018-07-04T09:11:08.860Z,1010.70
2018-07-04T09:12:08.908Z,1010.70
2018-07-04T09:13:08.891Z,1010.74
2018-07-04T09:14:08.898Z,1010.72
2018-07-04T09:15:08.909Z,1010.67
2018-07-04T09:16:08.927Z,1010.66
2018-07-04T09:17:08.978Z,1010.68
2018-07-04T09:18:08.974Z,1010.67
2018-07-04T09:19:08.956Z,1010.66
2018-07-04T09:20:08.970Z,1010.67
2018-07-04T09:21:08.975Z,1010.63
2018-07-04T09:22:08.986Z,1010.62
2018-07-04T09:23:08.996Z,1010.59
2018-07-04T09:24:09.013Z,1010.62
2018-07-04T09:25:09.015Z,1010.59
2018-07-04T09:26:09.025Z,1010.61
2018-07-04T09:27:09.034Z,1010.65
2018-07-04T09:28:09.044Z,1010.64
2018-07-04T09:29:09.053Z,1010.63
2018-07-04T09:30:09.061Z,1010.70
2018-07-04T09:31:09.069Z,1010.67
2018-07-04T09:32:09.081Z,1010.68
2018-07-04T09:33:09.092Z,1010.68
2018-07-04T09:34:09.098Z,1010.64
2018-07-04T09:35:09.106Z,1010.56
2018-07-04T09:36:09.117Z,1010.61
2018-07-04T09:37:09.125Z,1010.58
2018-07-04T09:38:09.131Z,1010.55
2018-07-04T09:39:09.140Z,1010.59
2018-07-04T09:40:09.148Z,1010.60
2018-07-04T09:41:09.155Z,1010.58
2018-07-04T09:42:09.164Z,1010.56
2018-07-04T09:43:09.171Z,1010.59
2018-07-04T09:44:09.189Z,1010.58
2018-07-04T09:45:09.186Z,1010.58
2018-07-04T09:46:09.198Z,1010.55
2018-07-04T09:47:09.204Z,1010.55
2018-07-04T09:48:09.211Z,1010.50
2018-07-04T09:49:09.222Z,1010.50
2018-07-04T09:50:09.226Z,1010.47
2018-07-04T09:51:09.236Z,1010.44
2018-07-04T09:52:09.242Z,1010.42
2018-07-04T09:53:09.248Z,1010.46
2018-07-04T09:54:09.261Z,1010.47
2018-07-04T09:55:09.264Z,1010.51
2018-07-04T09:56:09.336Z,1010.50
2018-07-04T09:57:09.278Z,1010.48
2018-07-04T09:58:09.286Z,1010.50
2018-07-04T09:59:09.294Z,1010.50
2018-07-04T10:00:09.306Z,1010.49
2018-07-04T10:01:09.322Z,1010.45
2018-07-04T10:02:09.317Z,1010.45
2018-07-04T10:03:09.324Z,1010.45
2018-07-04T10:04:09.329Z,1010.42
2018-07-04T10:05:09.334Z,1010.42
2018-07-04T10:06:09.342Z,1010.39
2018-07-04T10:07:09.351Z,1010.42
2018-07-04T10:08:09.358Z,1010.42
2018-07-04T10:09:09.365Z,1010.42
2018-07-04T10:10:09.372Z,1010.38
2018-07-04T10:11:09.379Z,1010.39
2018-07-04T10:12:09.385Z,1010.38
2018-07-04T10:13:09.392Z,1010.39
2018-07-04T10:14:09.408Z,1010.36
2018-07-04T10:15:09.404Z,1010.33
2018-07-04T10:16:09.416Z,1010.33
2018-07-04T10:17:09.426Z,1010.32
2018-07-04T10:18:09.425Z,1010.31
2018-07-04T10:19:09.432Z,1010.31
2018-07-04T10:20:09.439Z,1010.34
2018-07-04T10:21:09.446Z,1010.36
2018-07-04T10:22:09.453Z,1010.35
2018-07-04T10:23:09.460Z,1010.32
2018-07-04T10:24:09.463Z,1010.34
2018-07-04T10:25:09.474Z,1010.25
2018-07-04T10:26:09.482Z,1010.27
2018-07-04T10:27:09.487Z,1010.23
2018-07-04T10:28:09.490Z,1010.25
2018-07-04T10:29:09.870Z,1010.24
2018-07-04T10:30:09.508Z,1010.22
2018-07-04T10:31:09.514Z,1010.22
2018-07-04T10:32:09.521Z,1010.27
2018-07-04T10:33:09.527Z,1010.23
2018-07-04T10:34:09.534Z,1010.22
2018-07-04T10:35:09.540Z,1010.21
2018-07-04T10:36:09.547Z,1010.26
2018-07-04T10:37:09.555Z,1010.26
2018-07-04T10:38:09.561Z,1010.27
2018-07-04T10:39:09.568Z,1010.26
2018-07-04T10:40:09.574Z,1010.26
2018-07-04T10:41:09.579Z,1010.25
2018-07-04T10:42:09.586Z,1010.22
2018-07-04T10:43:09.594Z,1010.18
2018-07-04T10:44:09.602Z,1010.17
2018-07-04T10:45:09.605Z,1010.17
2018-07-04T10:46:09.618Z,1010.14
2018-07-04T10:47:09.619Z,1010.12
2018-07-04T10:48:09.625Z,1010.11
2018-07-04T10:49:09.630Z,1010.10
2018-07-04T10:50:09.637Z,1010.11
2018-07-04T10:51:09.644Z,1010.10
2018-07-04T10:52:09.650Z,1010.04
2018-07-04T10:53:09.658Z,1010.07
2018-07-04T10:54:09.666Z,1010.05
2018-07-04T10:55:09.671Z,1010.03
2018-07-04T10:56:09.679Z,1010.01
2018-07-04T10:57:09.694Z,1010.01
2018-07-04T10:58:09.691Z,1010.00
2018-07-04T10:59:09.702Z,1010.00
2018-07-04T11:00:09.707Z,1010.02
2018-07-04T11:01:09.714Z,1010.06
2018-07-04T11:02:09.720Z,1010.04
2018-07-04T11:03:09.727Z,1010.04
2018-07-04T11:04:09.737Z,1010.04
2018-07-04T11:05:09.742Z,1010.03
2018-07-04T11:06:09.751Z,1009.97
2018-07-04T11:07:09.750Z,1009.95
2018-07-04T11:08:09.830Z,1009.97
2018-07-04T11:09:09.763Z,1009.93
2018-07-04T11:10:09.770Z,1009.93
2018-07-04T11:11:09.779Z,1009.90
2018-07-04T11:12:09.782Z,1009.88
2018-07-04T11:13:09.789Z,1009.88
2018-07-04T11:14:09.795Z,1009.85
2018-07-04T11:15:09.801Z,1009.86
2018-07-04T11:16:09.808Z,1009.86
2018-07-04T11:17:09.883Z,1009.89
2018-07-04T11:18:09.820Z,1009.86
2018-07-04T11:19:09.826Z,1009.84
2018-07-04T11:20:09.836Z,1009.83
2018-07-04T11:21:09.841Z,1009.84
2018-07-04T11:22:09.847Z,1009.86
2018-07-04T11:23:09.855Z,1009.82
2018-07-04T11:24:09.861Z,1009.82
2018-07-04T11:25:09.868Z,1009.89
2018-07-04T11:26:09.876Z,1009.72
2018-07-04T11:27:09.885Z,1009.81
2018-07-04T11:28:09.913Z,1009.85
2018-07-04T11:29:09.894Z,1009.81
2018-07-04T11:30:09.901Z,1009.81
2018-07-04T11:31:09.907Z,1009.78
2018-07-04T11:32:09.913Z,1009.79
2018-07-04T11:33:09.919Z,1009.81
2018-07-04T11:34:09.926Z,1009.82
2018-07-04T11:35:09.932Z,1009.79
2018-07-04T11:36:09.943Z,1009.79
2018-07-04T11:37:09.944Z,1009.79
2018-07-04T11:38:09.952Z,1009.79
2018-07-04T11:39:09.962Z,1009.77
2018-07-04T11:40:09.965Z,1009.76
2018-07-04T11:41:09.970Z,1009.74
2018-07-04T11:42:09.978Z,1009.74
2018-07-04T11:43:09.984Z,1009.71
2018-07-04T11:44:10.008Z,1009.72
2018-07-04T11:45:09.992Z,1009.71
2018-07-04T11:46:10.006Z,1009.65
2018-07-04T11:47:10.011Z,1009.65
2018-07-04T11:48:10.017Z,1009.64
2018-07-04T11:49:10.023Z,1009.61
2018-07-04T11:50:10.026Z,1009.62
2018-07-04T11:51:10.036Z,1009.64
2018-07-04T11:52:10.052Z,1009.62
2018-07-04T11:53:10.049Z,1009.60
2018-07-04T11:54:10.052Z,1009.63
2018-07-04T11:55:10.063Z,1009.60
2018-07-04T11:56:10.068Z,1009.59
2018-07-04T11:57:10.193Z,1009.56
2018-07-04T11:58:10.078Z,1009.61
2018-07-04T11:59:10.086Z,1009.59
2018-07-04T12:00:10.092Z,1009.57
2018-07-04T12:01:10.103Z,1009.63
2018-07-04T12:02:10.105Z,1009.66
2018-07-04T12:03:10.112Z,1009.66
2018-07-04T12:04:10.119Z,1009.66
2018-07-04T12:05:10.126Z,1009.69